sensor_id;sensor_type;location;lat;lon;timestamp;pressure;altitude;pressure_sealevel;temperature;humidity
60719;BME280;46567;51.660;5.824;2023-04-05T00:00:38;102420.0;;;4.0;58.5
60719;BME280;46567;51.660;5.824;2023-04-05T00:05:38;102420.0;;;3.9;59.0
60719;BME280;46567;51.660;5.824;2023-04-05T00:10:38;102410.0;;;3.8;59.0
60719;BME280;46567;51.660;5.824;2023-04-05T00:15:38;102410.0;;;3.7;59.5
60719;BME280;46567;51.660;5.824;2023-04-05T00:20:38;102400.0;;;3.7;59.5
60719;BME280;46567;51.660;5.824;2023-04-05T00:25:38;102400.0;;;3.6;59.5
60719;BME280;46567;51.660;5.824;2023-04-05T00:30:38;102400.0;;;3.6;60.0
60719;BME280;46567;51.660;5.824;2023-04-05T00:35:38;102400.0;;;3.5;60.0
60719;BME280;46567;51.660;5.824;2023-04-05T00:40:38;102400.0;;;3.4;60.0
60719;BME280;46567;51.660;5.824;2023-04-05T00:45:38;102390.0;;;3.3;60.5
60719;BME280;46567;51.660;5.824;2023-04-05T00:50:38;102400.0;;;3.3;60.5
60719;BME280;46567;51.660;5.824;2023-04-05T00:55:38;102380.0;;;3.2;60.5
60719;BME280;46567;51.660;5.824;2023-04-05T01:00:38;102380.0;;;3.1;60.5
60719;BME280;46567;51.660;5.824;2023-04-05T01:05:46;102380.0;;;3.1;61.0
60719;BME280;46567;51.660;5.824;2023-04-05T01:10:45;102380.0;;;3.1;61.0
60719;BME280;46567;51.660;5.824;2023-04-05T01:15:38;102370.0;;;3.0;61.0
60719;BME280;46567;51.660;5.824;2023-04-05T01:20:45;102380.0;;;2.9;61.0
60719;BME280;46567;51.660;5.824;2023-04-05T01:27:13;102370.0;;;2.9;61.0
60719;BME280;46567;51.660;5.824;2023-04-05T01:32:29;102370.0;;;2.9;61.0
60719;BME280;46567;51.660;5.824;2023-04-05T01:36:53;102370.0;;;2.7;61.5
60719;BME280;46567;51.660;5.824;2023-04-05T01:40:39;102370.0;;;2.7;61.5
60719;BME280;46567;51.660;5.824;2023-04-05T01:45:38;102350.0;;;2.6;61.5
60719;BME280;46567;51.660;5.824;2023-04-05T01:50:38;102370.0;;;2.6;61.5
60719;BME280;46567;51.660;5.824;2023-04-05T01:55:38;102350.0;;;2.6;61.5
60719;BME280;46567;51.660;5.824;2023-04-05T02:00:38;102350.0;;;2.6;61.5
60719;BME280;46567;51.660;5.824;2023-04-05T02:05:38;102350.0;;;2.6;61.5
60719;BME280;46567;51.660;5.824;2023-04-05T02:10:38;102350.0;;;2.6;62.0
60719;BME280;46567;51.660;5.824;2023-04-05T02:15:38;102350.0;;;2.5;62.0
60719;BME280;46567;51.660;5.824;2023-04-05T02:20:38;102350.0;;;2.4;62.0
60719;BME280;46567;51.660;5.824;2023-04-05T02:25:38;102340.0;;;2.3;62.5
60719;BME280;46567;51.660;5.824;2023-04-05T02:30:38;102340.0;;;2.2;62.5
60719;BME280;46567;51.660;5.824;2023-04-05T02:35:38;102340.0;;;2.2;62.5
60719;BME280;46567;51.660;5.824;2023-04-05T02:40:38;102340.0;;;2.1;63.0
60719;BME280;46567;51.660;5.824;2023-04-05T02:45:38;102330.0;;;2.1;62.5
60719;BME280;46567;51.660;5.824;2023-04-05T02:50:38;102330.0;;;2.1;62.5
60719;BME280;46567;51.660;5.824;2023-04-05T02:55:38;102330.0;;;2.1;63.0
60719;BME280;46567;51.660;5.824;2023-04-05T03:00:38;102340.0;;;2.0;63.0
60719;BME280;46567;51.660;5.824;2023-04-05T03:05:38;102330.0;;;2.0;63.0
60719;BME280;46567;51.660;5.824;2023-04-05T03:10:38;102320.0;;;2.0;63.0
60719;BME280;46567;51.660;5.824;2023-04-05T03:15:38;102310.0;;;1.9;63.0
60719;BME280;46567;51.660;5.824;2023-04-05T03:20:38;102320.0;;;1.9;63.5
60719;BME280;46567;51.660;5.824;2023-04-05T03:25:38;102320.0;;;1.8;63.5
60719;BME280;46567;51.660;5.824;2023-04-05T03:30:38;102300.0;;;1.7;64.0
60719;BME280;46567;51.660;5.824;2023-04-05T03:35:38;102310.0;;;1.7;64.5
60719;BME280;46567;51.660;5.824;2023-04-05T03:40:38;102310.0;;;1.7;64.0
60719;BME280;46567;51.660;5.824;2023-04-05T03:45:38;102310.0;;;1.7;64.0
60719;BME280;46567;51.660;5.824;2023-04-05T03:50:38;102310.0;;;1.7;64.0
60719;BME280;46567;51.660;5.824;2023-04-05T03:55:38;102290.0;;;1.7;64.5
60719;BME280;46567;51.660;5.824;2023-04-05T04:00:38;102290.0;;;1.6;64.0
60719;BME280;46567;51.660;5.824;2023-04-05T04:05:38;102290.0;;;1.6;64.0
60719;BME280;46567;51.660;5.824;2023-04-05T04:10:38;102290.0;;;1.5;64.5
60719;BME280;46567;51.660;5.824;2023-04-05T04:15:38;102290.0;;;1.5;64.5
60719;BME280;46567;51.660;5.824;2023-04-05T04:20:38;102290.0;;;1.5;64.5
60719;BME280;46567;51.660;5.824;2023-04-05T04:25:38;102280.0;;;1.5;65.0
60719;BME280;46567;51.660;5.824;2023-04-05T04:30:38;102280.0;;;1.4;65.0
60719;BME280;46567;51.660;5.824;2023-04-05T04:35:38;102280.0;;;1.4;65.0
60719;BME280;46567;51.660;5.824;2023-04-05T04:40:38;102280.0;;;1.4;65.0
60719;BME280;46567;51.660;5.824;2023-04-05T04:45:38;102290.0;;;1.3;65.0
60719;BME280;46567;51.660;5.824;2023-04-05T04:50:38;102280.0;;;1.3;65.0
60719;BME280;46567;51.660;5.824;2023-04-05T04:55:38;102290.0;;;1.3;65.5
60719;BME280;46567;51.660;5.824;2023-04-05T05:05:41;102290.0;;;1.2;65.0
60719;BME280;46567;51.660;5.824;2023-04-05T05:10:38;102290.0;;;1.2;65.5
60719;BME280;46567;51.660;5.824;2023-04-05T05:15:38;102280.0;;;1.2;65.5
60719;BME280;46567;51.660;5.824;2023-04-05T05:20:38;102280.0;;;1.2;65.5
60719;BME280;46567;51.660;5.824;2023-04-05T05:25:38;102280.0;;;1.3;65.5
60719;BME280;46567;51.660;5.824;2023-04-05T05:30:38;102280.0;;;1.3;65.5
60719;BME280;46567;51.660;5.824;2023-04-05T05:35:38;102290.0;;;1.2;66.0
60719;BME280;46567;51.660;5.824;2023-04-05T05:40:38;102290.0;;;1.2;66.0
60719;BME280;46567;51.660;5.824;2023-04-05T05:45:38;102280.0;;;1.3;66.0
60719;BME280;46567;51.660;5.824;2023-04-05T05:50:38;102280.0;;;1.4;66.0
60719;BME280;46567;51.660;5.824;2023-04-05T05:55:38;102280.0;;;1.5;66.0
60719;BME280;46567;51.660;5.824;2023-04-05T06:00:38;102270.0;;;1.5;66.5
60719;BME280;46567;51.660;5.824;2023-04-05T06:05:38;102280.0;;;1.7;66.5
60719;BME280;46567;51.660;5.824;2023-04-05T06:10:38;102280.0;;;1.8;66.5
60719;BME280;46567;51.660;5.824;2023-04-05T06:15:38;102290.0;;;2.0;66.5
60719;BME280;46567;51.660;5.824;2023-04-05T06:20:38;102290.0;;;2.1;67.0
60719;BME280;46567;51.660;5.824;2023-04-05T06:25:38;102280.0;;;2.2;68.0
60719;BME280;46567;51.660;5.824;2023-04-05T06:30:38;102290.0;;;2.4;69.0
60719;BME280;46567;51.660;5.824;2023-04-05T06:35:38;102280.0;;;2.6;69.0
60719;BME280;46567;51.660;5.824;2023-04-05T06:40:38;102290.0;;;3.0;69.0
60719;BME280;46567;51.660;5.824;2023-04-05T06:45:38;102290.0;;;3.4;69.0
60719;BME280;46567;51.660;5.824;2023-04-05T06:50:38;102280.0;;;3.8;68.5
60719;BME280;46567;51.660;5.824;2023-04-05T06:55:38;102280.0;;;4.1;68.5
60719;BME280;46567;51.660;5.824;2023-04-05T07:00:38;102290.0;;;4.5;69.0
60719;BME280;46567;51.660;5.824;2023-04-05T07:05:38;102290.0;;;4.8;68.0
60719;BME280;46567;51.660;5.824;2023-04-05T07:10:39;102290.0;;;5.1;67.5
60719;BME280;46567;51.660;5.824;2023-04-05T07:15:38;102280.0;;;5.4;67.0
60719;BME280;46567;51.660;5.824;2023-04-05T07:20:38;102290.0;;;5.7;66.5
60719;BME280;46567;51.660;5.824;2023-04-05T07:25:39;102280.0;;;6.1;66.5
60719;BME280;46567;51.660;5.824;2023-04-05T07:30:38;102280.0;;;6.5;65.0
60719;BME280;46567;51.660;5.824;2023-04-05T07:35:38;102280.0;;;6.8;64.0
60719;BME280;46567;51.660;5.824;2023-04-05T07:40:38;102280.0;;;7.1;64.0
60719;BME280;46567;51.660;5.824;2023-04-05T07:45:38;102270.0;;;7.3;63.0
60719;BME280;46567;51.660;5.824;2023-04-05T07:50:38;102280.0;;;7.6;62.0
60719;BME280;46567;51.660;5.824;2023-04-05T07:55:38;102270.0;;;7.9;62.5
60719;BME280;46567;51.660;5.824;2023-04-05T08:00:38;102260.0;;;8.2;61.5
60719;BME280;46567;51.660;5.824;2023-04-05T08:05:38;102270.0;;;8.4;61.0
60719;BME280;46567;51.660;5.824;2023-04-05T08:10:39;102270.0;;;8.7;60.5
60719;BME280;46567;51.660;5.824;2023-04-05T08:15:39;102260.0;;;8.5;60.0
60719;BME280;46567;51.660;5.824;2023-04-05T08:20:38;102260.0;;;8.9;60.5
60719;BME280;46567;51.660;5.824;2023-04-05T08:25:38;102260.0;;;9.3;59.0
60719;BME280;46567;51.660;5.824;2023-04-05T08:30:38;102260.0;;;9.4;58.0
60719;BME280;46567;51.660;5.824;2023-04-05T08:35:39;102260.0;;;9.3;57.5
60719;BME280;46567;51.660;5.824;2023-04-05T08:40:45;102260.0;;;9.8;57.5
60719;BME280;46567;51.660;5.824;2023-04-05T08:45:43;102260.0;;;9.9;56.0
60719;BME280;46567;51.660;5.824;2023-04-05T08:50:38;102260.0;;;10.2;56.5
60719;BME280;46567;51.660;5.824;2023-04-05T08:55:38;102260.0;;;10.5;55.0
60719;BME280;46567;51.660;5.824;2023-04-05T09:00:38;102250.0;;;10.5;54.0
60719;BME280;46567;51.660;5.824;2023-04-05T09:05:39;102250.0;;;10.7;53.0
60719;BME280;46567;51.660;5.824;2023-04-05T09:10:38;102250.0;;;10.7;51.5
60719;BME280;46567;51.660;5.824;2023-04-05T09:15:39;102260.0;;;10.9;52.0
60719;BME280;46567;51.660;5.824;2023-04-05T09:20:38;102260.0;;;11.2;51.5
60719;BME280;46567;51.660;5.824;2023-04-05T09:25:40;102250.0;;;11.4;47.5
60719;BME280;46567;51.660;5.824;2023-04-05T09:30:44;102250.0;;;11.3;48.0
60719;BME280;46567;51.660;5.824;2023-04-05T09:35:38;102250.0;;;11.5;49.0
60719;BME280;46567;51.660;5.824;2023-04-05T09:40:45;102230.0;;;11.9;46.5
60719;BME280;46567;51.660;5.824;2023-04-05T09:45:39;102230.0;;;12.0;47.0
60719;BME280;46567;51.660;5.824;2023-04-05T09:50:38;102230.0;;;11.9;43.0
60719;BME280;46567;51.660;5.824;2023-04-05T09:55:38;102220.0;;;11.6;42.5
60719;BME280;46567;51.660;5.824;2023-04-05T10:00:46;102230.0;;;11.5;43.0
60719;BME280;46567;51.660;5.824;2023-04-05T10:05:38;102210.0;;;11.6;43.0
60719;BME280;46567;51.660;5.824;2023-04-05T10:10:46;102220.0;;;11.5;43.5
60719;BME280;46567;51.660;5.824;2023-04-05T10:15:39;102220.0;;;11.6;42.5
60719;BME280;46567;51.660;5.824;2023-04-05T10:20:39;102210.0;;;11.7;43.5
60719;BME280;46567;51.660;5.824;2023-04-05T10:25:47;102210.0;;;12.0;44.5
60719;BME280;46567;51.660;5.824;2023-04-05T10:30:46;102200.0;;;12.4;44.5
60719;BME280;46567;51.660;5.824;2023-04-05T10:35:51;102200.0;;;12.4;41.5
60719;BME280;46567;51.660;5.824;2023-04-05T10:40:42;102190.0;;;12.2;42.5
60719;BME280;46567;51.660;5.824;2023-04-05T10:45:39;102190.0;;;12.4;43.0
60719;BME280;46567;51.660;5.824;2023-04-05T10:50:38;102180.0;;;12.3;41.5
60719;BME280;46567;51.660;5.824;2023-04-05T10:55:38;102180.0;;;12.5;40.0
60719;BME280;46567;51.660;5.824;2023-04-05T11:00:38;102170.0;;;12.4;39.5
60719;BME280;46567;51.660;5.824;2023-04-05T11:05:38;102170.0;;;12.7;38.0
60719;BME280;46567;51.660;5.824;2023-04-05T11:10:38;102170.0;;;12.5;39.5
60719;BME280;46567;51.660;5.824;2023-04-05T11:15:40;102160.0;;;12.7;39.0
60719;BME280;46567;51.660;5.824;2023-04-05T11:20:40;102150.0;;;13.0;39.5
60719;BME280;46567;51.660;5.824;2023-04-05T11:25:39;102150.0;;;13.4;40.0
60719;BME280;46567;51.660;5.824;2023-04-05T11:30:46;102150.0;;;13.5;39.0
60719;BME280;46567;51.660;5.824;2023-04-05T11:35:38;102150.0;;;13.6;39.0
60719;BME280;46567;51.660;5.824;2023-04-05T11:40:38;102130.0;;;13.6;38.5
60719;BME280;46567;51.660;5.824;2023-04-05T11:45:39;102140.0;;;13.8;38.5
60719;BME280;46567;51.660;5.824;2023-04-05T11:50:39;102130.0;;;13.7;37.5
60719;BME280;46567;51.660;5.824;2023-04-05T11:55:39;102120.0;;;13.6;38.5
60719;BME280;46567;51.660;5.824;2023-04-05T12:00:39;102120.0;;;13.6;37.5
60719;BME280;46567;51.660;5.824;2023-04-05T12:05:43;102110.0;;;13.7;38.0
60719;BME280;46567;51.660;5.824;2023-04-05T12:10:38;102110.0;;;13.8;38.5
60719;BME280;46567;51.660;5.824;2023-04-05T12:15:39;102100.0;;;13.9;38.0
60719;BME280;46567;51.660;5.824;2023-04-05T12:20:38;102100.0;;;13.7;37.5
60719;BME280;46567;51.660;5.824;2023-04-05T12:25:38;102090.0;;;13.5;37.5
60719;BME280;46567;51.660;5.824;2023-04-05T12:30:48;102090.0;;;13.7;37.5
60719;BME280;46567;51.660;5.824;2023-04-05T12:35:38;102090.0;;;14.0;38.5
60719;BME280;46567;51.660;5.824;2023-04-05T12:40:39;102070.0;;;14.2;37.0
60719;BME280;46567;51.660;5.824;2023-04-05T12:45:38;102070.0;;;14.3;38.0
60719;BME280;46567;51.660;5.824;2023-04-05T12:50:41;102070.0;;;14.5;37.5
60719;BME280;46567;51.660;5.824;2023-04-05T12:55:44;102060.0;;;14.6;38.5
60719;BME280;46567;51.660;5.824;2023-04-05T13:00:38;102050.0;;;14.8;37.5
60719;BME280;46567;51.660;5.824;2023-04-05T13:05:38;102050.0;;;14.7;35.0
60719;BME280;46567;51.660;5.824;2023-04-05T13:10:38;102050.0;;;14.4;34.5
60719;BME280;46567;51.660;5.824;2023-04-05T13:15:38;102040.0;;;14.4;34.5
60719;BME280;46567;51.660;5.824;2023-04-05T13:20:38;102030.0;;;14.3;34.5
60719;BME280;46567;51.660;5.824;2023-04-05T13:25:38;102030.0;;;14.5;35.5
60719;BME280;46567;51.660;5.824;2023-04-05T13:30:38;102030.0;;;14.8;35.0
60719;BME280;46567;51.660;5.824;2023-04-05T13:35:38;102030.0;;;14.8;33.5
60719;BME280;46567;51.660;5.824;2023-04-05T13:40:38;102010.0;;;14.6;33.5
60719;BME280;46567;51.660;5.824;2023-04-05T13:45:38;102010.0;;;14.6;34.0
60719;BME280;46567;51.660;5.824;2023-04-05T13:50:38;102000.0;;;15.0;35.0
60719;BME280;46567;51.660;5.824;2023-04-05T13:55:38;102000.0;;;15.4;34.5
60719;BME280;46567;51.660;5.824;2023-04-05T14:00:38;102000.0;;;15.6;33.0
60719;BME280;46567;51.660;5.824;2023-04-05T14:05:38;101990.0;;;15.4;33.0
60719;BME280;46567;51.660;5.824;2023-04-05T14:10:38;101990.0;;;15.3;33.0
60719;BME280;46567;51.660;5.824;2023-04-05T14:15:38;101990.0;;;15.4;32.0
60719;BME280;46567;51.660;5.824;2023-04-05T14:20:38;101990.0;;;15.0;32.5
60719;BME280;46567;51.660;5.824;2023-04-05T14:25:38;101980.0;;;15.2;33.5
60719;BME280;46567;51.660;5.824;2023-04-05T14:30:38;101970.0;;;15.6;33.0
60719;BME280;46567;51.660;5.824;2023-04-05T14:35:38;101960.0;;;15.9;32.5
60719;BME280;46567;51.660;5.824;2023-04-05T14:40:38;101960.0;;;16.1;32.5
60719;BME280;46567;51.660;5.824;2023-04-05T14:45:38;101950.0;;;16.4;33.5
60719;BME280;46567;51.660;5.824;2023-04-05T14:50:38;101950.0;;;16.5;31.5
60719;BME280;46567;51.660;5.824;2023-04-05T14:55:38;101940.0;;;16.3;31.5
60719;BME280;46567;51.660;5.824;2023-04-05T15:00:38;101940.0;;;16.1;32.0
60719;BME280;46567;51.660;5.824;2023-04-05T15:05:38;101940.0;;;15.9;32.0
60719;BME280;46567;51.660;5.824;2023-04-05T15:10:39;101920.0;;;15.9;31.5
60719;BME280;46567;51.660;5.824;2023-04-05T15:15:38;101930.0;;;15.6;31.5
60719;BME280;46567;51.660;5.824;2023-04-05T15:20:38;101920.0;;;15.6;32.5
60719;BME280;46567;51.660;5.824;2023-04-05T15:25:38;101910.0;;;15.7;32.5
60719;BME280;46567;51.660;5.824;2023-04-05T15:30:38;101910.0;;;15.8;32.0
60719;BME280;46567;51.660;5.824;2023-04-05T15:35:38;101900.0;;;15.8;32.0
60719;BME280;46567;51.660;5.824;2023-04-05T15:40:38;101900.0;;;15.6;31.5
60719;BME280;46567;51.660;5.824;2023-04-05T15:45:38;101900.0;;;15.5;32.0
60719;BME280;46567;51.660;5.824;2023-04-05T15:50:38;101900.0;;;15.4;32.5
60719;BME280;46567;51.660;5.824;2023-04-05T15:55:38;101900.0;;;15.5;32.0
60719;BME280;46567;51.660;5.824;2023-04-05T16:00:38;101890.0;;;15.7;32.5
60719;BME280;46567;51.660;5.824;2023-04-05T16:05:38;101890.0;;;15.8;32.0
60719;BME280;46567;51.660;5.824;2023-04-05T16:10:38;101890.0;;;16.0;32.0
60719;BME280;46567;51.660;5.824;2023-04-05T16:15:39;101880.0;;;16.2;32.5
60719;BME280;46567;51.660;5.824;2023-04-05T16:20:38;101890.0;;;16.3;32.5
60719;BME280;46567;51.660;5.824;2023-04-05T16:25:38;101880.0;;;16.3;32.5
60719;BME280;46567;51.660;5.824;2023-04-05T16:30:38;101880.0;;;16.3;31.5
60719;BME280;46567;51.660;5.824;2023-04-05T16:35:38;101870.0;;;15.6;31.0
60719;BME280;46567;51.660;5.824;2023-04-05T16:40:38;101870.0;;;15.4;32.5
60719;BME280;46567;51.660;5.824;2023-04-05T16:45:38;101870.0;;;15.2;32.0
60719;BME280;46567;51.660;5.824;2023-04-05T16:50:38;101870.0;;;14.9;32.5
60719;BME280;46567;51.660;5.824;2023-04-05T16:55:38;101870.0;;;14.6;32.5
60719;BME280;46567;51.660;5.824;2023-04-05T17:00:38;101870.0;;;14.3;33.0
60719;BME280;46567;51.660;5.824;2023-04-05T17:05:38;101870.0;;;14.1;33.5
60719;BME280;46567;51.660;5.824;2023-04-05T17:10:38;101870.0;;;14.2;33.5
60719;BME280;46567;51.660;5.824;2023-04-05T17:15:38;101880.0;;;14.2;33.5
60719;BME280;46567;51.660;5.824;2023-04-05T17:20:38;101870.0;;;14.0;33.5
60719;BME280;46567;51.660;5.824;2023-04-05T17:25:38;101860.0;;;13.7;34.0
60719;BME280;46567;51.660;5.824;2023-04-05T17:30:38;101870.0;;;13.5;35.0
60719;BME280;46567;51.660;5.824;2023-04-05T17:35:38;101870.0;;;13.5;35.5
60719;BME280;46567;51.660;5.824;2023-04-05T17:40:38;101870.0;;;13.5;36.0
60719;BME280;46567;51.660;5.824;2023-04-05T17:45:38;101870.0;;;13.4;36.5
60719;BME280;46567;51.660;5.824;2023-04-05T17:50:38;101870.0;;;13.2;37.0
60719;BME280;46567;51.660;5.824;2023-04-05T17:55:38;101880.0;;;13.0;37.5
60719;BME280;46567;51.660;5.824;2023-04-05T18:00:38;101880.0;;;12.8;37.5
60719;BME280;46567;51.660;5.824;2023-04-05T18:05:38;101880.0;;;12.5;38.0
60719;BME280;46567;51.660;5.824;2023-04-05T18:10:38;101880.0;;;12.3;38.5
60719;BME280;46567;51.660;5.824;2023-04-05T18:15:39;101880.0;;;12.1;39.0
60719;BME280;46567;51.660;5.824;2023-04-05T18:20:38;101880.0;;;11.8;39.0
60719;BME280;46567;51.660;5.824;2023-04-05T18:25:38;101880.0;;;11.6;39.5
60719;BME280;46567;51.660;5.824;2023-04-05T18:30:38;101880.0;;;11.5;39.5
60719;BME280;46567;51.660;5.824;2023-04-05T18:35:38;101890.0;;;11.3;40.0
60719;BME280;46567;51.660;5.824;2023-04-05T18:40:38;101880.0;;;11.0;40.0
60719;BME280;46567;51.660;5.824;2023-04-05T18:45:38;101900.0;;;10.8;40.5
60719;BME280;46567;51.660;5.824;2023-04-05T18:50:38;101890.0;;;10.6;41.0
60719;BME280;46567;51.660;5.824;2023-04-05T18:55:38;101900.0;;;10.5;41.0
60719;BME280;46567;51.660;5.824;2023-04-05T19:00:38;101890.0;;;10.4;41.0
60719;BME280;46567;51.660;5.824;2023-04-05T19:05:38;101900.0;;;10.3;41.5
60719;BME280;46567;51.660;5.824;2023-04-05T19:10:38;101910.0;;;10.1;41.5
60719;BME280;46567;51.660;5.824;2023-04-05T19:15:38;101900.0;;;10.0;41.5
60719;BME280;46567;51.660;5.824;2023-04-05T19:20:38;101900.0;;;9.8;42.0
60719;BME280;46567;51.660;5.824;2023-04-05T19:25:38;101910.0;;;9.7;42.0
60719;BME280;46567;51.660;5.824;2023-04-05T19:30:38;101910.0;;;9.6;42.5
60719;BME280;46567;51.660;5.824;2023-04-05T19:35:38;101910.0;;;9.5;42.5
60719;BME280;46567;51.660;5.824;2023-04-05T19:40:38;101910.0;;;9.4;42.5
60719;BME280;46567;51.660;5.824;2023-04-05T19:45:38;101910.0;;;9.3;43.0
60719;BME280;46567;51.660;5.824;2023-04-05T19:50:48;101910.0;;;9.2;43.0
60719;BME280;46567;51.660;5.824;2023-04-05T19:55:39;101910.0;;;9.1;43.0
60719;BME280;46567;51.660;5.824;2023-04-05T20:00:43;101910.0;;;9.0;43.5
60719;BME280;46567;51.660;5.824;2023-04-05T20:06:04;101910.0;;;8.8;44.0
60719;BME280;46567;51.660;5.824;2023-04-05T20:10:42;101910.0;;;8.6;45.0
60719;BME280;46567;51.660;5.824;2023-04-05T20:15:39;101900.0;;;8.4;45.0
60719;BME280;46567;51.660;5.824;2023-04-05T20:20:41;101900.0;;;8.2;45.5
60719;BME280;46567;51.660;5.824;2023-04-05T20:25:44;101890.0;;;8.1;46.0
60719;BME280;46567;51.660;5.824;2023-04-05T20:30:38;101880.0;;;7.9;46.5
60719;BME280;46567;51.660;5.824;2023-04-05T20:35:38;101880.0;;;7.7;47.0
60719;BME280;46567;51.660;5.824;2023-04-05T20:40:38;101880.0;;;7.5;47.5
60719;BME280;46567;51.660;5.824;2023-04-05T20:45:38;101870.0;;;7.4;48.0
60719;BME280;46567;51.660;5.824;2023-04-05T20:50:38;101880.0;;;7.3;48.0
60719;BME280;46567;51.660;5.824;2023-04-05T20:55:38;101870.0;;;7.2;48.5
60719;BME280;46567;51.660;5.824;2023-04-05T21:00:38;101870.0;;;7.1;49.0
60719;BME280;46567;51.660;5.824;2023-04-05T21:05:38;101860.0;;;7.1;49.0
60719;BME280;46567;51.660;5.824;2023-04-05T21:10:38;101860.0;;;7.0;49.5
60719;BME280;46567;51.660;5.824;2023-04-05T21:15:38;101850.0;;;6.9;49.5
60719;BME280;46567;51.660;5.824;2023-04-05T21:20:38;101850.0;;;6.9;49.5
60719;BME280;46567;51.660;5.824;2023-04-05T21:25:38;101860.0;;;6.8;50.0
60719;BME280;46567;51.660;5.824;2023-04-05T21:30:38;101860.0;;;6.7;50.0
60719;BME280;46567;51.660;5.824;2023-04-05T21:35:39;101850.0;;;6.6;50.5
60719;BME280;46567;51.660;5.824;2023-04-05T21:40:38;101850.0;;;6.5;50.5
60719;BME280;46567;51.660;5.824;2023-04-05T21:45:38;101850.0;;;6.4;50.5
60719;BME280;46567;51.660;5.824;2023-04-05T21:50:38;101850.0;;;6.2;51.0
60719;BME280;46567;51.660;5.824;2023-04-05T21:55:38;101850.0;;;6.1;51.0
60719;BME280;46567;51.660;5.824;2023-04-05T22:00:38;101850.0;;;6.1;51.5
60719;BME280;46567;51.660;5.824;2023-04-05T22:05:38;101860.0;;;6.0;51.5
60719;BME280;46567;51.660;5.824;2023-04-05T22:10:38;101850.0;;;6.0;51.5
60719;BME280;46567;51.660;5.824;2023-04-05T22:15:38;101850.0;;;6.0;52.0
60719;BME280;46567;51.660;5.824;2023-04-05T22:20:38;101840.0;;;5.9;52.5
60719;BME280;46567;51.660;5.824;2023-04-05T22:25:38;101840.0;;;5.8;52.5
60719;BME280;46567;51.660;5.824;2023-04-05T22:30:38;101840.0;;;5.7;52.5
60719;BME280;46567;51.660;5.824;2023-04-05T22:35:39;101830.0;;;5.6;52.5
60719;BME280;46567;51.660;5.824;2023-04-05T22:40:38;101830.0;;;5.6;52.5
60719;BME280;46567;51.660;5.824;2023-04-05T22:45:38;101830.0;;;5.5;53.0
60719;BME280;46567;51.660;5.824;2023-04-05T22:50:38;101830.0;;;5.4;53.5
60719;BME280;46567;51.660;5.824;2023-04-05T22:55:38;101830.0;;;5.3;53.5
60719;BME280;46567;51.660;5.824;2023-04-05T23:00:38;101830.0;;;5.2;53.5
60719;BME280;46567;51.660;5.824;2023-04-05T23:05:38;101820.0;;;5.1;54.0
60719;BME280;46567;51.660;5.824;2023-04-05T23:10:38;101810.0;;;5.0;54.0
60719;BME280;46567;51.660;5.824;2023-04-05T23:15:38;101810.0;;;5.0;54.5
60719;BME280;46567;51.660;5.824;2023-04-05T23:20:38;101810.0;;;4.9;54.5
60719;BME280;46567;51.660;5.824;2023-04-05T23:25:38;101810.0;;;4.9;54.5
60719;BME280;46567;51.660;5.824;2023-04-05T23:30:38;101810.0;;;4.8;55.0
60719;BME280;46567;51.660;5.824;2023-04-05T23:35:38;101800.0;;;4.8;55.5
60719;BME280;46567;51.660;5.824;2023-04-05T23:40:38;101800.0;;;4.7;55.5
60719;BME280;46567;51.660;5.824;2023-04-05T23:45:38;101790.0;;;4.7;56.0
60719;BME280;46567;51.660;5.824;2023-04-05T23:50:38;101790.0;;;4.7;56.0
60719;BME280;46567;51.660;5.824;2023-04-05T23:55:38;101770.0;;;4.6;56.0
